CYHY

Hay River / Merlyn Carter Airport

Hay River, Northwest Territories, Canada
METAR CYHY 251900Z 20005KT 15SM BKN100 08/01 A2972 RMK AS7 SLP074
Observed Flight Rules
Sep-25 @ 19:00 UTC (32 minutes ago) Visual Flight Rules
Wind Visibility Clouds
200° at 5 knots 15 miles
  • Broken at 10,000' AGL
Temperatures Readings
Current 8°C / 46°F
Dewpoint 1°C / 34°F
Humidity 62%
Altimeter 29.72" Hg
Pressure 1007.4 hPa
Elevation 166
METAR CYHY 251900Z 20005KT 15SM BKN100 08/01 A2972 RMK AS7 SLP074
Observed Flight Rules
Sep-25 @ 19:00 UTC
(32 minutes ago)
VFR
Wind Visibility
200° at 5 knots 15 miles
Clouds
  • Broken at 10,000' AGL
Temperature Dewpoint
8°C / 46°F 1°C / 34°F
Humidity Altimeter Pressure
62% 29.72" Hg 1007.4 hPa